Time;durP1;ratioP1;P1;durP2;ratioP2;P2;SDS_P1;SDS_P2;PMS_P1;PMS_P2;Temp;Humidity;BMP_temperature;BMP_pressure;BME280_temperature;BME280_humidity;BME280_pressure;Samples;Min_cycle;Max_cycle;Signal;HPM_P1;HPM_P2
2023/04/19 00:01:47;;;;;;;;;8.00;7.75;;;;;22.47;34.62;101950.88;5076666;28;45364;-76
2023/04/19 00:04:13;;;;;;;;;9.75;9.25;;;;;22.21;35.05;101911.94;5076671;28;45376;-75
2023/04/19 00:06:40;;;;;;;;;9.25;9.00;;;;;22.26;34.79;101911.47;5076525;28;46186;-76
2023/04/19 00:09:06;;;;;;;;;8.75;8.50;;;;;22.47;34.74;101944.75;5076482;28;45395;-76
2023/04/19 00:11:32;;;;;;;;;9.25;8.00;;;;;22.45;34.82;101947.56;5076537;28;45465;-75
2023/04/19 00:13:57;;;;;;;;;10.00;10.00;;;;;22.48;34.36;101954.38;5076522;28;45355;-76
2023/04/19 00:16:23;;;;;;;;;10.00;9.25;;;;;22.47;34.39;101942.94;5076180;28;45288;-75
2023/04/19 00:18:48;;;;;;;;;9.25;6.25;;;;;22.47;34.63;101934.97;5076445;28;45352;-75
2023/04/19 00:21:14;;;;;;;;;9.75;9.25;;;;;22.47;34.80;101937.63;5076600;28;45317;-75
2023/04/19 00:23:39;;;;;;;;;10.00;8.50;;;;;22.39;34.93;101926.97;5076345;28;45375;-76
2023/04/19 00:26:04;;;;;;;;;11.25;9.75;;;;;22.41;34.51;101932.94;5076050;28;45462;-74
2023/04/19 00:28:30;;;;;;;;;9.75;9.00;;;;;22.23;34.98;101899.34;5076331;28;45600;-75
2023/04/19 00:30:55;;;;;;;;;8.75;8.75;;;;;22.47;34.73;101934.97;5076048;28;45324;-75
2023/04/19 00:33:21;;;;;;;;;10.00;10.00;;;;;22.40;34.76;101923.34;5076271;28;45407;-76
2023/04/19 00:35:46;;;;;;;;;9.25;9.25;;;;;22.38;34.29;101922.63;5076071;28;46010;-75
2023/04/19 00:38:11;;;;;;;;;10.50;10.50;;;;;22.49;34.42;101921.53;5075859;28;45487;-75
2023/04/19 00:40:37;;;;;;;;;8.50;8.50;;;;;22.48;35.00;101920.72;5076460;28;45328;-75
2023/04/19 00:43:03;;;;;;;;;8.50;8.50;;;;;22.35;34.41;101897.25;5076322;28;45361;-75
2023/04/19 00:45:32;;;;;;;;;9.25;9.25;;;;;22.46;34.57;101904.13;5057293;28;46005;-75
2023/04/19 00:47:58;;;;;;;;;8.00;8.00;;;;;22.37;34.74;101905.06;5076099;28;45425;-75
2023/04/19 00:50:23;;;;;;;;;9.50;8.00;;;;;22.49;34.75;101919.72;5076034;28;45295;-75
2023/04/19 00:52:52;;;;;;;;;10.00;10.00;;;;;22.49;35.12;101919.72;5075704;28;45425;-74
2023/04/19 00:55:18;;;;;;;;;10.00;9.00;;;;;22.48;34.51;101919.91;5076029;28;46300;-75
2023/04/19 00:57:43;;;;;;;;;10.75;9.50;;;;;22.39;34.68;101901.28;5075797;28;45377;-75
2023/04/19 01:00:09;;;;;;;;;10.75;9.25;;;;;22.20;34.64;101883.75;5075638;28;45322;-76
2023/04/19 01:02:35;;;;;;;;;10.75;10.75;;;;;22.43;35.27;101904.44;5075967;28;45515;-75
2023/04/19 01:05:00;;;;;;;;;13.00;12.00;;;;;22.48;34.61;101911.94;5075604;28;46180;-76
2023/04/19 01:07:26;;;;;;;;;9.75;9.00;;;;;22.39;34.97;101889.84;5075753;28;45344;-76
2023/04/19 01:09:51;;;;;;;;;10.00;10.00;;;;;22.39;34.83;101892.50;5075882;28;45333;-75
2023/04/19 01:12:17;;;;;;;;;11.25;10.75;;;;;22.48;34.49;101909.28;5076519;28;45282;-76
2023/04/19 01:14:43;;;;;;;;;8.75;8.00;;;;;22.37;35.31;101884.72;5078951;28;47468;-75
2023/04/19 01:17:09;;;;;;;;;11.75;10.00;;;;;22.34;34.70;101879.72;5079179;28;45344;-76
2023/04/19 01:19:35;;;;;;;;;9.75;9.00;;;;;22.43;34.67;101898.31;5079237;28;45312;-76
2023/04/19 01:22:01;;;;;;;;;8.25;7.25;;;;;22.46;35.12;101896.16;5079398;28;45308;-76
2023/04/19 01:24:27;;;;;;;;;9.00;9.00;;;;;22.35;34.55;101875.25;5079017;28;47250;-75
2023/04/19 01:26:52;;;;;;;;;9.75;9.25;;;;;22.37;34.72;101878.56;5060597;28;46191;-74
2023/04/19 01:29:19;;;;;;;;;10.00;8.75;;;;;22.47;35.14;101889.91;5079014;28;45939;-75
2023/04/19 01:31:50;;;;;;;;;10.25;9.00;;;;;22.31;35.25;101868.56;5079097;28;45396;-75
2023/04/19 01:34:15;;;;;;;;;7.50;7.50;;;;;22.32;34.97;101871.09;5078650;28;46259;-75
2023/04/19 01:36:40;;;;;;;;;9.00;9.00;;;;;22.39;34.92;101882.72;5079192;28;45265;-75
2023/04/19 01:39:06;;;;;;;;;11.00;9.50;;;;;22.36;35.21;101868.94;5079043;28;45367;-76
2023/04/19 01:41:31;;;;;;;;;12.00;10.75;;;;;22.46;35.09;101898.00;5079095;28;45586;-76
2023/04/19 01:43:56;;;;;;;;;10.50;8.00;;;;;22.46;34.75;101887.38;5078390;28;45556;-76
2023/04/19 01:46:22;;;;;;;;;8.50;8.50;;;;;22.46;34.70;101890.03;5078880;28;45389;-76
2023/04/19 01:48:47;;;;;;;;;8.00;8.00;;;;;22.39;34.97;101877.41;5079073;28;45391;-75
2023/04/19 01:51:12;;;;;;;;;7.50;6.25;;;;;22.38;34.82;101874.91;5060843;28;45399;-76
2023/04/19 01:53:38;;;;;;;;;10.50;10.50;;;;;22.47;35.29;101883.75;5078645;28;45363;-76
2023/04/19 01:56:03;;;;;;;;;8.75;8.75;;;;;22.25;35.28;101848.84;5078759;28;45368;-76
2023/04/19 01:58:29;;;;;;;;;11.25;10.00;;;;;22.35;34.82;101862.78;5078595;28;45290;-76
2023/04/19 02:00:54;;;;;;;;;9.00;9.00;;;;;22.47;35.09;101873.97;5078854;28;45265;-76
2023/04/19 02:03:19;;;;;;;;;10.00;8.00;;;;;22.47;34.66;101881.09;5078723;28;46121;-76
2023/04/19 02:05:45;;;;;;;;;8.00;8.00;;;;;22.33;35.42;101850.72;5078617;28;45497;-77
2023/04/19 02:08:10;;;;;;;;;10.25;9.50;;;;;22.47;34.86;101873.13;5078729;28;45242;-76
2023/04/19 02:10:35;;;;;;;;;7.25;6.75;;;;;22.46;34.78;101872.31;5078799;28;45539;-77
2023/04/19 02:13:01;;;;;;;;;10.00;10.00;;;;;22.46;35.16;101872.31;5077965;28;46176;-76
2023/04/19 02:15:26;;;;;;;;;8.00;8.00;;;;;22.46;34.86;101879.41;5078364;28;45374;-76
2023/04/19 02:17:51;;;;;;;;;7.75;7.25;;;;;22.45;35.12;101873.31;5078629;28;45454;-75
2023/04/19 02:20:17;;;;;;;;;10.75;9.00;;;;;22.46;35.10;101876.78;5078604;28;45432;-76
2023/04/19 02:22:42;;;;;;;;;8.75;8.75;;;;;22.46;35.25;101876.78;5078348;28;45517;-76
2023/04/19 02:25:08;;;;;;;;;8.75;8.75;;;;;22.46;34.85;101885.56;5076932;28;45312;-76
2023/04/19 02:27:33;;;;;;;;;9.00;9.00;;;;;22.35;34.87;101860.16;5077894;28;45368;-76
2023/04/19 02:29:59;;;;;;;;;7.75;7.75;;;;;22.45;35.08;101875.97;5078515;28;45286;-76
2023/04/19 02:32:24;;;;;;;;;11.00;9.00;;;;;22.41;34.72;101871.94;5077988;28;45420;-76
2023/04/19 02:34:49;;;;;;;;;11.25;9.75;;;;;22.38;35.14;101874.91;5078141;28;45328;-75
2023/04/19 02:37:16;;;;;;;;;9.00;9.00;;;;;22.31;35.10;101860.63;5078149;28;45312;-75
2023/04/19 02:39:41;;;;;;;;;9.25;9.00;;;;;22.32;34.72;101857.00;5078195;28;45276;-75
2023/04/19 02:42:06;;;;;;;;;9.75;8.00;;;;;22.32;35.04;101860.50;5059310;28;47972;-75
2023/04/19 02:44:32;;;;;;;;;6.25;6.25;;;;;22.46;34.71;101880.25;5059839;28;45445;-76
2023/04/19 02:46:57;;;;;;;;;8.75;8.00;;;;;22.40;35.26;101871.09;5078139;28;45394;-75
2023/04/19 02:49:22;;;;;;;;;10.00;9.00;;;;;22.45;34.78;101875.13;5078205;28;45351;-76
2023/04/19 02:51:49;;;;;;;;;9.00;7.75;;;;;22.29;35.19;101858.13;5077628;28;46671;-75
2023/04/19 02:54:15;;;;;;;;;8.50;8.50;;;;;22.36;35.35;101864.47;5077736;28;45378;-75
2023/04/19 02:56:40;;;;;;;;;9.75;8.00;;;;;22.46;35.33;101880.25;5077585;27;45324;-76
2023/04/19 02:59:05;;;;;;;;;8.00;8.00;;;;;22.39;34.81;101874.78;5077589;28;47209;-75
2023/04/19 03:01:31;;;;;;;;;11.25;9.50;;;;;22.44;34.82;101873.44;5077527;28;45419;-76
2023/04/19 03:03:57;;;;;;;;;10.00;8.25;;;;;22.47;34.92;101881.09;5077465;28;45372;-76
2023/04/19 03:06:22;;;;;;;;;11.25;9.00;;;;;22.43;35.16;101867.31;5077733;28;45417;-76
2023/04/19 03:08:48;;;;;;;;;9.00;9.00;;;;;22.47;34.85;101878.44;5077800;28;45401;-75
2023/04/19 03:11:15;;;;;;;;;9.50;9.00;;;;;22.23;34.78;101854.28;5077220;28;45374;-75
2023/04/19 03:13:41;;;;;;;;;9.25;8.50;;;;;22.48;35.09;101875.63;5077354;28;45335;-76
2023/04/19 03:16:07;;;;;;;;;7.75;7.75;;;;;22.49;34.99;101877.28;5077560;28;45548;-75
2023/04/19 03:18:32;;;;;;;;;7.00;7.00;;;;;22.49;34.75;101868.50;5077810;28;45400;-76
2023/04/19 03:20:58;;;;;;;;;9.00;8.00;;;;;22.46;35.23;101874.97;5077242;28;47023;-75
2023/04/19 03:23:24;;;;;;;;;7.75;7.75;;;;;22.06;35.33;101808.31;5077008;28;45270;-76
2023/04/19 03:25:51;;;;;;;;;8.75;8.75;;;;;22.49;34.72;101876.47;5077498;28;45401;-76
2023/04/19 03:28:16;;;;;;;;;6.75;6.75;;;;;22.18;34.76;101828.25;5076974;28;45371;-75
2023/04/19 03:30:42;;;;;;;;;7.50;7.50;;;;;22.26;34.89;101846.03;5077057;28;45523;-76
2023/04/19 03:33:07;;;;;;;;;7.25;7.25;;;;;22.43;34.67;101877.91;5077223;28;45336;-75
2023/04/19 03:35:32;;;;;;;;;6.75;6.75;;;;;22.41;34.62;101864.00;5076877;28;45272;-75
2023/04/19 03:37:58;;;;;;;;;7.25;7.25;;;;;22.49;35.23;101876.47;5076815;28;45430;-75
2023/04/19 03:40:23;;;;;;;;;11.75;9.75;;;;;22.41;34.91;101866.66;5077058;28;46886;-76
2023/04/19 03:42:48;;;;;;;;;8.25;8.25;;;;;22.39;34.71;101856.22;5077007;28;45435;-75
2023/04/19 03:45:14;;;;;;;;;7.75;7.75;;;;;22.39;35.14;101865.97;5077186;28;45424;-75
2023/04/19 03:47:39;;;;;;;;;9.75;7.75;;;;;22.31;34.44;101850.84;5077150;28;45399;-76
2023/04/19 03:50:05;;;;;;;;;8.25;8.25;;;;;22.37;34.83;101860.00;5076820;28;47522;-76
2023/04/19 03:52:30;;;;;;;;;9.00;7.75;;;;;22.32;35.30;101849.88;5076556;28;45355;-75
2023/04/19 03:54:56;;;;;;;;;7.25;6.75;;;;;22.38;34.83;101865.13;5076906;28;45344;-75
2023/04/19 03:57:21;;;;;;;;;7.75;7.75;;;;;22.34;35.08;101849.72;5077036;27;45355;-75
2023/04/19 03:59:46;;;;;;;;;8.25;6.75;;;;;22.47;35.32;101883.75;5058551;28;47417;-75
2023/04/19 04:02:12;;;;;;;;;6.75;6.75;;;;;22.37;34.49;101866.16;5076682;28;45317;-75
2023/04/19 04:04:37;;;;;;;;;6.50;6.50;;;;;22.43;34.72;101879.75;5076953;28;45335;-75
2023/04/19 04:07:02;;;;;;;;;7.50;7.50;;;;;22.35;34.70;101857.50;5076485;28;45392;-76
2023/04/19 04:09:28;;;;;;;;;10.75;5.50;;;;;22.46;35.34;101879.41;5076600;28;46534;-76
2023/04/19 04:11:53;;;;;;;;;9.50;8.50;;;;;22.18;35.41;101843.31;5076414;28;45419;-75
2023/04/19 04:14:18;;;;;;;;;8.00;8.00;;;;;22.45;34.83;101885.72;5076350;28;47643;-76
2023/04/19 04:16:44;;;;;;;;;8.25;6.75;;;;;22.30;35.35;101859.81;5076724;28;45285;-75
2023/04/19 04:19:09;;;;;;;;;8.50;6.25;;;;;22.45;34.75;101886.56;5076556;28;45920;-76
2023/04/19 04:21:35;;;;;;;;;8.00;6.00;;;;;22.27;35.35;101865.44;5075975;28;45425;-76
2023/04/19 04:24:03;;;;;;;;;10.75;8.25;;;;;22.29;35.35;101858.97;5076595;28;45381;-75
2023/04/19 04:26:29;;;;;;;;;8.50;7.00;;;;;22.44;34.79;101876.09;5076470;28;45351;-75
2023/04/19 04:28:56;;;;;;;;;6.00;6.00;;;;;22.44;34.87;101876.94;5076155;28;45402;-75
2023/04/19 04:31:21;;;;;;;;;8.25;7.50;;;;;22.29;34.81;101851.03;5076208;28;45362;-75
2023/04/19 04:33:46;;;;;;;;;5.75;5.75;;;;;22.44;35.25;101874.28;5076267;28;45464;-76
2023/04/19 04:36:12;;;;;;;;;7.00;7.00;;;;;22.37;34.84;101870.63;5075934;28;45395;-75
2023/04/19 04:38:37;;;;;;;;;8.25;8.25;;;;;22.44;35.03;101882.25;5075961;28;46440;-76
2023/04/19 04:41:03;;;;;;;;;7.50;7.00;;;;;22.44;35.38;101884.06;5076233;28;45474;-76
2023/04/19 04:43:28;;;;;;;;;8.50;7.25;;;;;22.34;34.98;101866.47;5076392;28;45375;-75
2023/04/19 04:45:56;;;;;;;;;7.00;7.00;;;;;22.43;34.88;101879.75;5076157;28;45388;-75
2023/04/19 04:48:22;;;;;;;;;6.75;6.75;;;;;22.44;34.94;101881.41;5075117;28;46317;-76
2023/04/19 04:50:47;;;;;;;;;7.25;7.25;;;;;22.44;35.32;101873.44;5075509;28;45372;-75
2023/04/19 04:53:12;;;;;;;;;5.50;4.00;;;;;22.30;35.11;101849.22;5075914;28;45341;-75
2023/04/19 04:55:38;;;;;;;;;6.00;6.00;;;;;22.43;35.22;101877.13;5075934;28;45372;-76
2023/04/19 04:58:04;;;;;;;;;8.00;6.75;;;;;22.35;35.31;101870.75;5075870;28;46081;-75
2023/04/19 05:00:30;;;;;;;;;9.50;7.00;;;;;22.43;34.91;101888.53;5075961;28;45291;-76
2023/04/19 05:02:56;;;;;;;;;7.50;7.50;;;;;22.34;34.94;101873.56;5075795;28;45522;-76
2023/04/19 05:05:22;;;;;;;;;7.25;7.25;;;;;22.42;35.41;101892.19;5075453;28;45294;-75
2023/04/19 05:07:47;;;;;;;;;6.50;6.00;;;;;22.43;35.11;101887.72;5075765;28;45439;-76
2023/04/19 05:10:12;;;;;;;;;6.50;6.50;;;;;22.43;35.19;101887.72;5075772;28;45399;-75
2023/04/19 05:12:38;;;;;;;;;7.25;7.25;;;;;22.37;35.27;101881.22;5075745;28;45490;-75
2023/04/19 05:15:03;;;;;;;;;6.00;6.00;;;;;22.27;34.80;101863.63;5075870;28;45348;-75
2023/04/19 05:17:29;;;;;;;;;7.25;7.00;;;;;22.36;34.77;101874.25;5075484;28;46142;-75
2023/04/19 05:19:54;;;;;;;;;8.25;7.00;;;;;22.16;34.66;101850.63;5075040;28;45331;-75
2023/04/19 05:22:19;;;;;;;;;7.00;7.00;;;;;22.34;34.90;101877.06;5075702;28;45478;-75
2023/04/19 05:24:46;;;;;;;;;7.50;7.50;;;;;22.39;35.25;101888.03;5075679;28;45431;-76
2023/04/19 05:27:11;;;;;;;;;8.00;8.00;;;;;22.42;35.41;101894.00;5075315;28;47164;-74
2023/04/19 05:29:36;;;;;;;;;8.00;7.25;;;;;22.36;34.84;101885.69;5075392;28;45390;-76
2023/04/19 05:32:02;;;;;;;;;6.50;6.50;;;;;22.40;35.41;101894.97;5075245;28;45444;-76
2023/04/19 05:34:27;;;;;;;;;9.00;9.00;;;;;22.34;34.75;101889.47;5075230;28;45376;-74
2023/04/19 05:36:52;;;;;;;;;1.50;1.00;;;;;22.26;35.00;101874.34;5075558;28;47025;-75
2023/04/19 05:39:18;;;;;;;;;7.25;6.25;;;;;22.34;35.26;101886.81;5075447;28;45321;-75
2023/04/19 05:41:43;;;;;;;;;8.25;8.25;;;;;22.30;34.92;101878.38;5075581;28;45351;-76
2023/04/19 05:44:08;;;;;;;;;9.00;8.25;;;;;22.41;35.33;101895.81;5075435;28;45482;-76
2023/04/19 05:46:35;;;;;;;;;6.75;6.50;;;;;22.40;34.87;101894.97;5075297;28;47106;-75
2023/04/19 05:49:01;;;;;;;;;7.00;7.00;;;;;22.44;34.60;101919.38;5075035;28;45505;-76
2023/04/19 05:51:27;;;;;;;;;7.75;5.75;;;;;22.19;34.96;101876.81;5075166;28;45324;-75
2023/04/19 05:53:53;;;;;;;;;9.50;7.25;;;;;22.33;35.29;101903.75;5075039;28;45440;-76
2023/04/19 05:56:18;;;;;;;;;6.75;6.75;;;;;22.47;35.07;101920.88;5074841;28;46453;-76
2023/04/19 05:58:43;;;;;;;;;6.00;6.00;;;;;22.47;34.62;101926.19;5076351;27;45299;-75
2023/04/19 06:01:09;;;;;;;;;7.25;6.75;;;;;22.47;35.04;101921.72;5060318;28;46952;-76
2023/04/19 06:03:34;;;;;;;;;8.25;7.25;;;;;22.48;35.13;101933.16;5078142;28;45356;-75
2023/04/19 06:05:59;;;;;;;;;9.25;8.50;;;;;22.32;34.67;101913.50;5078485;28;45563;-76
2023/04/19 06:08:25;;;;;;;;;5.50;5.50;;;;;22.49;35.09;101929.50;5078512;28;45304;-75
2023/04/19 06:10:51;;;;;;;;;5.75;5.75;;;;;22.50;34.57;101933.81;5078522;28;45518;-75
2023/04/19 06:13:16;;;;;;;;;10.00;7.75;;;;;22.51;34.80;101946.09;5078480;28;45305;-74
2023/04/19 06:15:41;;;;;;;;;6.75;6.50;;;;;22.51;34.53;101941.63;5078113;28;45392;-76
2023/04/19 06:18:10;;;;;;;;;7.25;6.75;;;;;22.43;34.39;101919.53;5078020;28;45348;-76
2023/04/19 06:20:37;;;;;;;;;6.00;6.00;;;;;22.44;34.81;101929.13;5078612;28;45332;-75
2023/04/19 06:23:02;;;;;;;;;6.25;6.25;;;;;22.43;35.00;101927.50;5078332;28;45419;-76
2023/04/19 06:25:28;;;;;;;;;8.50;7.50;;;;;22.49;34.96;101945.41;5078079;28;46984;-75
2023/04/19 06:27:53;;;;;;;;;8.00;7.00;;;;;22.55;34.57;101943.97;5078179;28;45321;-76
2023/04/19 06:30:19;;;;;;;;;8.25;6.50;;;;;22.55;34.99;101941.31;5059793;28;45532;-76
2023/04/19 06:32:44;;;;;;;;;8.50;8.50;;;;;22.46;34.52;101929.81;5077968;28;45409;-76
2023/04/19 06:35:09;;;;;;;;;8.75;8.00;;;;;22.44;35.06;101915.88;5078103;28;46149;-75
2023/04/19 06:37:35;;;;;;;;;7.25;7.25;;;;;22.48;35.17;101926.00;5077898;28;45361;-76
2023/04/19 06:40:00;;;;;;;;;6.75;6.00;;;;;22.53;34.48;101930.88;5078323;28;45367;-76
2023/04/19 06:42:26;;;;;;;;;8.25;6.00;;;;;22.55;34.96;101936.00;5078122;28;45510;-75
2023/04/19 06:44:52;;;;;;;;;8.75;8.00;;;;;22.57;35.03;101941.97;5077779;28;46319;-76
2023/04/19 06:47:17;;;;;;;;;8.00;7.25;;;;;22.55;34.39;101934.19;5077566;28;45407;-75
2023/04/19 06:49:43;;;;;;;;;5.50;5.50;;;;;22.51;35.13;101931.00;5078074;28;45340;-75
2023/04/19 06:52:08;;;;;;;;;6.00;5.50;;;;;22.55;34.36;101928.03;5077809;28;45518;-76
2023/04/19 06:54:33;;;;;;;;;8.00;7.00;;;;;22.59;34.46;101934.69;5077560;28;46987;-76
2023/04/19 06:56:59;;;;;;;;;7.00;7.00;;;;;22.49;34.61;101913.59;5077779;28;45428;-75
2023/04/19 06:59:27;;;;;;;;;9.25;7.00;;;;;22.56;34.59;101929.72;5077951;28;45364;-75
2023/04/19 07:01:53;;;;;;;;;7.25;7.25;;;;;22.56;35.06;101916.47;5077270;28;45591;-76
2023/04/19 07:04:18;;;;;;;;;8.75;7.00;;;;;22.61;35.00;101922.13;5077464;28;46066;-76
2023/04/19 07:06:47;;;;;;;;;8.50;7.25;;;;;22.52;34.83;101923.88;5077604;28;45427;-75
2023/04/19 07:09:13;;;;;;;;;5.50;5.25;;;;;22.55;34.89;101925.41;5077748;28;45310;-75
2023/04/19 07:11:38;;;;;;;;;7.25;7.00;;;;;22.59;34.53;101932.03;5076883;28;45379;-76
2023/04/19 07:14:03;;;;;;;;;5.50;5.25;;;;;22.63;35.07;101941.38;5077205;28;46373;-75
2023/04/19 07:16:29;;;;;;;;;6.25;5.25;;;;;22.56;34.65;101937.69;5077306;28;45380;-75
2023/04/19 07:18:54;;;;;;;;;8.25;6.50;;;;;22.62;34.39;101939.69;5077560;28;45327;-75
2023/04/19 07:21:20;;;;;;;;;7.75;7.75;;;;;22.55;34.70;101928.88;5077576;28;45408;-76
2023/04/19 07:23:45;;;;;;;;;7.00;7.00;;;;;22.56;34.41;101932.38;5077320;28;46951;-75
2023/04/19 07:26:10;;;;;;;;;8.75;6.75;;;;;22.66;34.69;101954.31;5077071;28;45589;-75
2023/04/19 07:28:38;;;;;;;;;9.00;7.75;;;;;22.53;35.03;101933.53;5077463;28;45438;-75
2023/04/19 07:31:04;;;;;;;;;7.00;6.00;;;;;22.67;34.42;101963.09;5077024;28;45483;-75
2023/04/19 07:33:29;;;;;;;;;7.25;6.75;;;;;22.61;34.19;101944.16;5076872;28;45316;-76
2023/04/19 07:35:55;;;;;;;;;7.25;7.25;;;;;22.65;34.78;101960.59;5077162;28;45448;-75
2023/04/19 07:38:21;;;;;;;;;6.50;6.50;;;;;22.54;34.88;101923.72;5077100;28;45420;-76
2023/04/19 07:40:46;;;;;;;;;6.00;6.00;;;;;22.50;34.24;101939.13;5077148;28;45383;-76
2023/04/19 07:43:12;;;;;;;;;8.50;6.25;;;;;22.65;34.87;101973.84;5076877;28;47300;-75
2023/04/19 07:45:37;;;;;;;;;8.00;7.25;;;;;22.59;34.48;101935.53;5076357;28;45423;-76
2023/04/19 07:48:03;;;;;;;;;8.00;6.75;;;;;22.55;34.46;101928.88;5077085;28;45691;-76
2023/04/19 07:50:28;;;;;;;;;9.25;6.75;;;;;22.68;34.82;101943.53;5077049;28;45371;-75
2023/04/19 07:52:54;;;;;;;;;7.50;6.50;;;;;22.58;34.79;101928.56;5076828;28;46004;-75
2023/04/19 07:55:19;;;;;;;;;6.50;6.50;;;;;22.62;34.55;101939.69;5076795;28;45462;-76
2023/04/19 07:57:47;;;;;;;;;5.00;4.00;;;;;22.70;34.46;101944.22;5076850;28;45338;-76
2023/04/19 08:00:17;;;;;;;;;8.00;6.50;;;;;22.71;34.75;101953.88;5076579;28;45447;-76
2023/04/19 08:02:46;;;;;;;;;2.00;2.00;;;;;22.65;34.69;101935.88;5076650;28;46407;-76
2023/04/19 08:05:12;;;;;;;;;6.00;6.00;;;;;22.62;34.36;101929.91;5076633;28;45443;-74
2023/04/19 08:07:38;;;;;;;;;8.25;6.25;;;;;22.56;34.74;101930.53;5076728;28;45348;-75
2023/04/19 08:10:05;;;;;;;;;5.00;4.75;;;;;22.69;34.55;101938.06;5076733;28;45577;-76
2023/04/19 08:12:31;;;;;;;;;6.75;6.00;;;;;22.68;34.33;101939.06;5076589;28;45411;-75
2023/04/19 08:14:57;;;;;;;;;9.00;7.00;;;;;22.60;34.34;101923.94;5076107;28;45373;-76
2023/04/19 08:17:23;;;;;;;;;6.00;6.00;;;;;22.74;34.33;101935.00;5076643;28;45386;-75
2023/04/19 08:19:49;;;;;;;;;5.75;5.50;;;;;22.68;34.29;101925.81;5076595;28;45318;-74
2023/04/19 08:22:16;;;;;;;;;8.00;7.75;;;;;22.72;34.63;101943.09;5075045;28;47383;-75
2023/04/19 08:24:42;;;;;;;;;4.00;4.00;;;;;22.73;34.34;101934.16;5076277;28;45399;-75
2023/04/19 08:27:11;;;;;;;;;6.75;6.75;;;;;22.73;34.42;101931.50;5076395;28;45400;-75
2023/04/19 08:29:39;;;;;;;;;8.50;6.75;;;;;22.70;34.51;101929.16;5075906;28;45388;-75
2023/04/19 08:32:05;;;;;;;;;6.50;4.25;;;;;22.44;34.49;101887.56;5076042;28;46009;-75
2023/04/19 08:34:34;;;;;;;;;7.25;5.50;;;;;22.68;34.52;101923.16;5075996;28;45411;-75
2023/04/19 08:36:59;;;;;;;;;6.00;4.75;;;;;22.75;34.18;101936.63;5076167;28;45356;-76
2023/04/19 08:39:25;;;;;;;;;6.75;6.50;;;;;22.76;34.22;101929.50;5076206;28;45335;-75
2023/04/19 08:41:50;;;;;;;;;6.75;6.75;;;;;22.71;34.23;101930.00;5076233;28;45388;-75
2023/04/19 08:44:17;;;;;;;;;4.75;4.75;;;;;22.70;34.52;101944.22;5075730;28;45420;-76
2023/04/19 08:46:43;;;;;;;;;7.75;6.00;;;;;22.78;34.26;101946.09;5076172;28;45357;-76
2023/04/19 08:49:09;;;;;;;;;7.50;6.50;;;;;22.67;34.94;101931.25;5076074;28;45367;-76
2023/04/19 08:51:36;;;;;;;;;5.00;5.00;;;;;22.79;34.94;101955.72;5075776;28;46960;-76
2023/04/19 08:54:04;;;;;;;;;6.50;6.50;;;;;22.79;34.39;101948.59;5075675;28;45388;-74
2023/04/19 08:56:29;;;;;;;;;6.50;6.50;;;;;22.65;34.96;101917.31;5076076;28;45339;-76
2023/04/19 08:58:55;;;;;;;;;6.00;5.75;;;;;22.79;34.67;101939.81;5075555;28;45440;-75
2023/04/19 09:01:20;;;;;;;;;5.25;5.00;;;;;22.80;34.58;101941.47;5075943;28;46194;-76
2023/04/19 09:03:46;;;;;;;;;7.75;7.75;;;;;22.80;34.71;101937.00;5075881;28;45341;-75
2023/04/19 09:06:11;;;;;;;;;5.75;5.00;;;;;22.72;34.49;101923.69;5075811;28;45565;-76
2023/04/19 09:08:39;;;;;;;;;6.50;6.50;;;;;22.81;34.47;101940.47;5075886;28;45413;-76
2023/04/19 09:11:04;;;;;;;;;5.00;5.00;;;;;22.78;34.46;101933.66;5075691;28;46431;-75
2023/04/19 09:13:31;;;;;;;;;5.50;5.50;;;;;22.70;34.62;101920.34;5075117;28;45454;-75
2023/04/19 09:15:59;;;;;;;;;7.00;5.00;;;;;22.80;34.46;101939.63;5075970;28;45429;-76
2023/04/19 09:18:24;;;;;;;;;6.00;6.00;;;;;22.79;34.28;101934.50;5075588;28;45494;-75
2023/04/19 09:20:50;;;;;;;;;7.00;5.75;;;;;22.83;34.88;101944.63;5075564;28;45976;-75
2023/04/19 09:23:17;;;;;;;;;8.50;8.50;;;;;22.84;34.63;101933.03;5075741;28;45971;-76
2023/04/19 09:25:56;;;;;;;;;6.75;6.75;;;;;22.84;34.76;101938.34;5075770;28;45357;-75
2023/04/19 09:28:22;;;;;;;;;6.75;5.75;;;;;22.85;34.72;101931.19;5075613;28;45517;-75
2023/04/19 09:30:49;;;;;;;;;7.00;7.00;;;;;22.79;34.64;101918.59;5075280;28;46004;-76
2023/04/19 09:33:31;;;;;;;;;4.00;4.00;;;;;22.79;34.57;101922.06;5067652;28;45415;-76
2023/04/19 09:35:58;;;;;;;;;6.50;6.50;;;;;22.87;34.95;101925.75;5079141;28;45411;-75
2023/04/19 09:38:23;;;;;;;;;5.75;5.25;;;;;22.82;34.67;101924.38;5060629;28;45495;-76
2023/04/19 09:40:49;;;;;;;;;6.25;5.00;;;;;22.85;34.95;101924.06;5078588;28;46141;-75
2023/04/19 09:43:24;;;;;;;;;6.00;5.50;;;;;22.88;34.75;101922.94;5078697;28;45923;-75
2023/04/19 09:45:50;;;;;;;;;6.00;5.00;;;;;22.88;34.87;101925.56;5079098;28;45369;-75
2023/04/19 09:48:16;;;;;;;;;8.25;7.00;;;;;22.88;34.59;101922.94;5078013;28;45641;-75
2023/04/19 09:50:53;;;;;;;;;6.25;6.25;;;;;22.89;34.55;101921.09;5078880;28;46349;-75
2023/04/19 09:53:19;;;;;;;;;6.75;6.75;;;;;22.80;34.46;101913.09;5078766;28;45420;-75
2023/04/19 09:55:48;;;;;;;;;5.25;5.25;;;;;22.85;34.72;101918.78;5078450;28;45383;-75
2023/04/19 09:58:17;;;;;;;;;6.25;6.25;;;;;22.89;34.56;101913.16;5078867;28;45477;-75
2023/04/19 10:00:44;;;;;;;;;6.00;5.75;;;;;22.81;34.41;101893.56;5078516;28;46332;-76
2023/04/19 10:03:11;;;;;;;;;10.75;8.00;;;;;22.87;35.12;101909.81;5078517;28;45322;-75
2023/04/19 10:05:39;;;;;;;;;6.25;6.00;;;;;22.89;34.95;101908.69;5078677;28;45587;-75
2023/04/19 10:08:07;;;;;;;;;6.00;6.00;;;;;22.87;34.50;101905.38;5078470;28;45468;-74
2023/04/19 10:10:32;;;;;;;;;8.75;6.50;;;;;22.74;34.74;101879.28;5078053;28;46230;-75
2023/04/19 10:12:59;;;;;;;;;4.75;4.75;;;;;22.89;34.80;101905.19;5078242;28;45606;-76
2023/04/19 10:15:26;;;;;;;;;6.75;6.00;;;;;22.89;34.55;101892.75;5078750;28;45387;-76
2023/04/19 10:17:51;;;;;;;;;5.25;5.25;;;;;22.90;34.77;101898.91;5078525;28;45427;-76
2023/04/19 10:20:25;;;;;;;;;5.00;5.00;;;;;22.73;34.96;101869.63;5078158;28;45855;-76
2023/04/19 10:22:50;;;;;;;;;8.50;8.00;;;;;22.90;34.49;101899.72;5078298;28;45305;-76
2023/04/19 10:25:16;;;;;;;;;7.25;6.75;;;;;22.79;34.70;101884.09;5078097;28;45348;-76
2023/04/19 10:27:47;;;;;;;;;5.25;5.25;;;;;22.88;34.88;101887.59;5078182;28;45451;-76
2023/04/19 10:30:18;;;;;;;;;7.25;6.00;;;;;22.90;35.03;101890.94;5078024;28;47163;-75
2023/04/19 10:32:50;;;;;;;;;7.50;6.00;;;;;22.73;34.72;101867.00;5078013;28;45426;-75
2023/04/19 10:35:18;;;;;;;;;7.50;7.00;;;;;22.88;34.92;101888.44;5078246;28;45779;-76
2023/04/19 10:38:02;;;;;;;;;6.50;5.75;;;;;22.91;34.95;101884.63;5078047;28;45346;-75
2023/04/19 10:40:49;;;;;;;;;10.00;7.25;;;;;22.91;34.97;101879.31;5077652;28;45357;-76
2023/04/19 10:43:16;;;;;;;;;7.25;7.25;;;;;22.90;35.07;101881.13;5069649;28;45383;-76
2023/04/19 10:45:42;;;;;;;;;3.25;3.25;;;;;22.78;34.62;101862.03;5077113;28;45379;-76
2023/04/19 10:48:34;;;;;;;;;7.00;7.00;;;;;22.91;35.10;101881.97;5077941;28;45450;-76
2023/04/19 10:51:18;;;;;;;;;6.25;6.25;;;;;22.83;34.95;101873.00;5077661;28;46414;-75
2023/04/19 10:53:55;;;;;;;;;5.00;5.00;;;;;22.91;35.06;101858.91;5077283;28;45325;-76
2023/04/19 10:56:32;;;;;;;;;2.50;2.00;;;;;22.91;34.95;101872.19;5077913;28;45380;-76
2023/04/19 10:59:01;;;;;;;;;6.50;6.50;;;;;22.91;34.73;101874.84;5077774;28;45305;-75
2023/04/19 11:01:34;;;;;;;;;6.75;6.75;;;;;22.92;34.47;101870.38;5059421;28;48402;-75
2023/04/19 11:03:59;;;;;;;;;5.00;5.00;;;;;22.91;34.92;101880.16;5077489;28;45340;-76
2023/04/19 11:06:26;;;;;;;;;8.75;6.50;;;;;22.77;34.89;101847.09;5077700;28;45428;-75
2023/04/19 11:08:53;;;;;;;;;6.75;6.75;;;;;22.92;35.09;101870.38;5077344;28;45511;-76
2023/04/19 11:11:20;;;;;;;;;6.25;6.00;;;;;22.85;34.86;101847.13;5077512;28;45408;-76
2023/04/19 11:13:49;;;;;;;;;6.50;5.50;;;;;22.88;34.89;101855.75;5077352;28;45276;-75
2023/04/19 11:16:14;;;;;;;;;6.00;6.00;;;;;22.80;34.82;101830.84;5069183;28;45305;-75
2023/04/19 11:18:40;;;;;;;;;6.00;6.00;;;;;22.68;34.73;101819.69;5077529;28;45340;-75
2023/04/19 11:21:05;;;;;;;;;7.50;5.00;;;;;22.91;34.70;101858.09;5077427;28;46146;-75